Time;durP1;ratioP1;P1;durP2;ratioP2;P2;SDS_P1;SDS_P2;PMS_P1;PMS_P2;Temp;Humidity;BMP_temperature;BMP_pressure;BME280_temperature;BME280_humidity;BME280_pressure;Samples;Min_cycle;Max_cycle;Signal;HPM_P1;HPM_P2
2023/06/04 00:02:18;;;;;;;5.93;1.63;;;10.90;99.90;;;;;;5006919;28;20037;-77
2023/06/04 00:04:43;;;;;;;10.77;1.95;;;10.90;99.90;;;;;;5038159;28;20062;-76
2023/06/04 00:07:09;;;;;;;7.70;1.73;;;11.00;99.90;;;;;;5011755;28;20029;-77
2023/06/04 00:09:35;;;;;;;8.45;1.98;;;11.00;99.90;;;;;;5022178;28;20048;-76
2023/06/04 00:12:00;;;;;;;4.93;1.45;;;11.00;99.90;;;;;;5016865;28;20037;-77
2023/06/04 00:14:26;;;;;;;7.70;1.65;;;11.00;99.90;;;;;;5006822;28;20038;-76
2023/06/04 00:16:51;;;;;;;5.03;1.48;;;11.00;99.90;;;;;;5016242;28;20026;-76
2023/06/04 00:19:17;;;;;;;7.20;1.75;;;10.90;99.90;;;;;;5018233;28;20029;-76
2023/06/04 00:21:43;;;;;;;5.00;1.30;;;10.80;99.90;;;;;;5032913;28;20408;-76
2023/06/04 00:24:08;;;;;;;8.73;2.10;;;10.80;99.90;;;;;;5023027;28;20370;-78
2023/06/04 00:26:34;;;;;;;9.23;1.88;;;10.80;99.90;;;;;;5041181;28;20400;-76
2023/06/04 00:29:01;;;;;;;5.18;1.35;;;10.70;99.90;;;;;;5008377;28;20099;-77
2023/06/04 00:31:26;;;;;;;7.75;1.70;;;10.70;99.90;;;;;;5037428;28;20032;-76
2023/06/04 00:33:52;;;;;;;8.77;1.80;;;10.70;99.90;;;;;;5041089;28;20025;-76
2023/06/04 00:36:18;;;;;;;7.78;1.83;;;10.60;99.90;;;;;;5038851;28;20564;-76
2023/06/04 00:38:43;;;;;;;7.13;1.77;;;10.50;99.90;;;;;;5023313;28;20495;-76
2023/06/04 00:41:09;;;;;;;9.13;2.17;;;10.50;99.90;;;;;;5033270;28;20069;-76
2023/06/04 00:43:35;;;;;;;8.68;2.08;;;10.50;99.90;;;;;;5013283;28;20068;-75
2023/06/04 00:46:04;;;;;;;8.93;2.13;;;10.50;99.90;;;;;;5020392;28;20057;-76
2023/06/04 00:48:30;;;;;;;9.60;2.50;;;10.50;99.90;;;;;;5039316;28;20052;-76
2023/06/04 00:50:57;;;;;;;8.38;1.80;;;10.50;99.90;;;;;;5021030;28;20060;-76
2023/06/04 00:53:24;;;;;;;8.40;1.90;;;10.50;99.90;;;;;;5014484;28;20436;-76
2023/06/04 00:55:51;;;;;;;9.73;1.90;;;10.40;99.90;;;;;;5019430;28;20029;-77
2023/06/04 00:58:17;;;;;;;7.38;1.80;;;10.40;99.90;;;;;;5007981;28;20040;-77
2023/06/04 01:00:44;;;;;;;9.10;2.28;;;10.40;99.90;;;;;;5018566;28;20030;-75
2023/06/04 01:03:17;;;;;;;7.70;2.13;;;10.40;99.90;;;;;;5016237;28;20047;-77
2023/06/04 01:05:59;;;;;;;6.07;1.40;;;10.30;99.90;;;;;;5022717;28;20030;-76
2023/06/04 01:08:27;;;;;;;4.68;1.50;;;10.30;99.90;;;;;;5036438;28;20511;-77
2023/06/04 01:10:53;;;;;;;3.78;1.42;;;10.30;99.90;;;;;;5003889;28;20038;-76
2023/06/04 01:13:19;;;;;;;5.72;1.52;;;10.30;99.90;;;;;;5002380;28;20032;-77
2023/06/04 01:15:45;;;;;;;6.50;1.45;;;10.20;99.90;;;;;;5025667;28;20029;-76
2023/06/04 01:18:27;;;;;;;5.28;1.65;;;10.20;99.90;;;;;;5029786;28;20018;-77
2023/06/04 01:21:07;;;;;;;8.07;1.67;;;10.20;99.90;;;;;;5004002;28;20041;-76
2023/06/04 01:23:35;;;;;;;5.40;1.70;;;10.10;99.90;;;;;;5008335;28;20115;-77
2023/06/04 01:26:04;;;;;;;5.90;1.80;;;10.10;99.90;;;;;;5015785;28;20077;-76
2023/06/04 01:28:33;;;;;;;5.60;1.33;;;10.00;99.90;;;;;;5018034;28;20091;-77
2023/06/04 01:30:59;;;;;;;6.30;1.70;;;10.00;99.90;;;;;;5004080;28;20028;-77
2023/06/04 01:33:25;;;;;;;6.57;1.60;;;9.90;99.90;;;;;;5006375;28;20064;-77
2023/06/04 01:35:51;;;;;;;5.03;1.58;;;9.90;99.90;;;;;;5020776;28;20033;-77
2023/06/04 01:38:18;;;;;;;7.93;1.58;;;9.90;99.90;;;;;;5003326;28;20044;-77
2023/06/04 01:40:43;;;;;;;5.50;1.55;;;9.80;99.90;;;;;;5023548;28;20110;-77
2023/06/04 01:43:09;;;;;;;7.50;2.58;;;9.80;99.90;;;;;;5008629;28;20025;-76
2023/06/04 01:45:35;;;;;;;8.60;1.83;;;9.80;99.90;;;;;;5003255;28;20129;-76
2023/06/04 01:48:05;;;;;;;7.03;2.05;;;9.80;99.90;;;;;;5004974;28;20464;-76
2023/06/04 01:50:31;;;;;;;9.65;2.13;;;9.70;99.90;;;;;;5015268;28;20036;-77
2023/06/04 01:52:57;;;;;;;7.45;2.40;;;9.70;99.90;;;;;;5020638;28;20029;-76
2023/06/04 01:55:24;;;;;;;10.48;2.10;;;9.70;99.90;;;;;;5008966;28;20415;-76
2023/06/04 01:57:50;;;;;;;8.05;2.00;;;9.70;99.90;;;;;;5008175;28;20409;-77
2023/06/04 02:00:16;;;;;;;9.32;2.50;;;9.70;99.90;;;;;;5003791;28;20044;-76
2023/06/04 02:02:47;;;;;;;8.43;1.92;;;9.70;99.90;;;;;;5029810;28;20036;-77
2023/06/04 02:05:13;;;;;;;;;;;9.70;99.90;;;;;;5014440;28;20067;-76
2023/06/04 02:07:41;;;;;;;10.07;1.88;;;9.70;99.90;;;;;;5029084;28;19927;-77
2023/06/04 02:10:08;;;;;;;7.60;2.00;;;9.60;99.90;;;;;;5009243;28;20040;-77
2023/06/04 02:12:37;;;;;;;5.97;1.70;;;9.60;99.90;;;;;;5007069;28;20036;-76
2023/06/04 02:15:03;;;;;;;4.47;1.70;;;9.60;99.90;;;;;;5007444;28;20038;-76
2023/06/04 02:17:32;;;;;;;7.00;2.22;;;9.60;99.90;;;;;;5005853;28;20109;-76
2023/06/04 02:19:58;;;;;;;8.10;1.83;;;9.60;99.90;;;;;;5020906;28;20030;-76
2023/06/04 02:22:25;;;;;;;8.38;1.90;;;9.50;99.90;;;;;;5012643;28;20037;-77
2023/06/04 02:24:51;;;;;;;9.35;2.22;;;9.50;99.90;;;;;;5023237;28;20025;-77
2023/06/04 02:27:17;;;;;;;7.20;2.22;;;9.50;99.90;;;;;;5021287;28;20116;-77
2023/06/04 02:29:43;;;;;;;12.02;1.92;;;9.50;99.90;;;;;;5023183;28;20043;-77
2023/06/04 02:32:09;;;;;;;7.45;2.08;;;9.50;99.90;;;;;;5018559;28;20040;-77
2023/06/04 02:34:35;;;;;;;8.45;2.15;;;9.40;99.90;;;;;;5002018;28;20042;-78
2023/06/04 02:37:02;;;;;;;7.57;2.22;;;9.40;99.90;;;;;;5008859;28;20029;-76
2023/06/04 02:39:27;;;;;;;8.18;2.22;;;9.40;99.90;;;;;;5006782;28;20036;-77
2023/06/04 02:41:53;;;;;;;10.18;2.20;;;9.40;99.90;;;;;;5028648;28;20045;-76
2023/06/04 02:44:19;;;;;;;6.40;2.63;;;9.40;99.90;;;;;;5036840;28;20082;-76
2023/06/04 02:46:45;;;;;;;7.20;2.17;;;9.40;99.90;;;;;;5016051;28;20528;-77
2023/06/04 02:49:13;;;;;;;7.63;2.20;;;9.40;99.90;;;;;;5022918;28;20033;-77
2023/06/04 02:51:43;;;;;;;8.20;2.05;;;9.30;99.90;;;;;;5026599;28;20293;-76
2023/06/04 02:54:09;;;;;;;10.32;2.50;;;9.30;99.90;;;;;;5020297;28;20120;-77
2023/06/04 02:56:35;;;;;;;7.45;2.00;;;9.30;99.90;;;;;;5031150;28;20105;-76
2023/06/04 02:59:01;;;;;;;11.52;2.47;;;9.30;99.90;;;;;;5014080;28;20116;-76
2023/06/04 03:01:27;;;;;;;8.82;2.40;;;9.20;99.90;;;;;;5031932;28;20450;-76
2023/06/04 03:04:03;;;;;;;8.35;2.20;;;9.30;99.90;;;;;;5007115;28;20030;-77
2023/06/04 03:06:29;;;;;;;9.65;2.75;;;9.30;99.90;;;;;;5023654;28;20030;-76
2023/06/04 03:08:55;;;;;;;7.13;1.75;;;9.30;99.90;;;;;;5010267;28;20038;-77
2023/06/04 03:11:21;;;;;;;9.63;2.20;;;9.30;99.90;;;;;;5031415;28;20088;-78
2023/06/04 03:13:47;;;;;;;11.63;2.90;;;9.30;99.90;;;;;;5036954;28;20064;-78
2023/06/04 03:16:14;;;;;;;11.55;2.47;;;9.30;99.90;;;;;;5011356;28;20458;-76
2023/06/04 03:18:40;;;;;;;11.00;2.22;;;9.30;99.90;;;;;;5006107;28;20131;-77
2023/06/04 03:21:07;;;;;;;10.45;2.40;;;9.30;99.90;;;;;;5034721;28;20386;-76
2023/06/04 03:23:34;;;;;;;8.75;2.30;;;9.30;99.90;;;;;;5006589;28;20084;-77
2023/06/04 03:26:04;;;;;;;9.48;2.25;;;9.20;99.90;;;;;;5026200;28;20386;-77
2023/06/04 03:28:31;;;;;;;10.73;2.63;;;9.20;99.90;;;;;;5032226;28;20021;-76
2023/06/04 03:30:57;;;;;;;8.57;2.35;;;9.10;99.90;;;;;;5036725;28;20294;-76
2023/06/04 03:33:23;;;;;;;9.77;2.30;;;9.20;99.90;;;;;;5030791;28;20030;-78
2023/06/04 03:35:50;;;;;;;9.25;2.20;;;9.10;99.90;;;;;;5021438;28;20030;-75
2023/06/04 03:38:16;;;;;;;9.95;2.50;;;9.10;99.90;;;;;;5007863;28;20067;-77
2023/06/04 03:40:42;;;;;;;5.38;2.20;;;9.10;99.90;;;;;;5013314;28;20108;-77
2023/06/04 03:43:09;;;;;;;6.80;2.20;;;9.10;99.90;;;;;;5018093;28;20076;-77
2023/06/04 03:45:35;;;;;;;7.22;2.45;;;9.10;99.90;;;;;;5021732;28;20045;-77
2023/06/04 03:48:01;;;;;;;11.20;2.30;;;9.10;99.90;;;;;;5013678;28;20429;-76
2023/06/04 03:50:26;;;;;;;7.60;2.20;;;9.10;99.90;;;;;;5025001;28;20029;-77
2023/06/04 03:52:52;;;;;;;12.00;2.92;;;9.10;99.90;;;;;;5009267;28;20057;-77
2023/06/04 03:55:18;;;;;;;12.35;3.03;;;9.10;99.90;;;;;;5014647;28;20044;-77
2023/06/04 03:57:44;;;;;;;8.77;2.50;;;9.10;99.90;;;;;;5009364;28;20511;-78
2023/06/04 04:00:13;;;;;;;12.07;2.95;;;9.20;99.90;;;;;;5006809;28;20033;-77
2023/06/04 04:02:42;;;;;;;6.75;2.42;;;9.20;99.90;;;;;;5013967;28;20111;-77
2023/06/04 04:05:08;;;;;;;5.20;2.40;;;9.20;99.90;;;;;;5019621;28;20124;-76
2023/06/04 04:07:34;;;;;;;6.60;1.85;;;9.20;99.90;;;;;;5021729;28;20957;-76
2023/06/04 04:10:00;;;;;;;10.45;2.50;;;9.20;99.90;;;;;;5009780;28;20033;-77
2023/06/04 04:12:26;;;;;;;8.20;2.80;;;9.20;99.90;;;;;;5044654;28;20025;-76
2023/06/04 04:14:51;;;;;;;10.63;2.92;;;9.20;99.90;;;;;;5027651;28;20111;-77
2023/06/04 04:17:17;;;;;;;8.93;2.40;;;9.20;99.90;;;;;;5009259;28;20052;-77
2023/06/04 04:19:43;;;;;;;9.68;3.03;;;9.30;99.90;;;;;;5011989;28;20445;-77
2023/06/04 04:22:10;;;;;;;9.65;2.50;;;9.30;99.90;;;;;;5021946;28;20096;-77
2023/06/04 04:24:37;;;;;;;9.30;2.45;;;9.30;99.90;;;;;;5009195;28;20055;-76
2023/06/04 04:27:04;;;;;;;10.32;2.38;;;9.40;99.90;;;;;;5033799;28;20648;-77
2023/06/04 04:29:34;;;;;;;9.70;3.25;;;9.50;99.90;;;;;;5014941;28;20037;-76
2023/06/04 04:32:01;;;;;;;10.98;2.55;;;9.50;99.90;;;;;;5023749;28;20045;-76
2023/06/04 04:34:27;;;;;;;11.48;2.60;;;9.60;99.90;;;;;;5011818;28;20043;-76
2023/06/04 04:36:53;;;;;;;12.48;2.50;;;9.60;99.90;;;;;;5018763;28;20025;-77
2023/06/04 04:39:25;;;;;;;7.50;2.30;;;9.70;99.90;;;;;;5003988;28;20048;-76
2023/06/04 04:41:51;;;;;;;10.02;2.35;;;9.70;99.90;;;;;;5027023;28;21144;-76
2023/06/04 04:44:17;;;;;;;6.95;2.63;;;9.80;99.90;;;;;;5014818;28;20505;-77
2023/06/04 04:46:43;;;;;;;12.98;2.45;;;9.80;99.90;;;;;;5027380;28;20539;-77
2023/06/04 04:49:09;;;;;;;10.40;2.72;;;9.90;99.90;;;;;;5026514;28;20106;-76
2023/06/04 04:51:35;;;;;;;10.10;2.47;;;10.00;99.90;;;;;;5033815;28;20108;-76
2023/06/04 04:54:01;;;;;;;9.38;2.40;;;10.00;99.90;;;;;;5010643;28;20021;-77
2023/06/04 04:56:27;;;;;;;8.57;2.70;;;10.10;99.90;;;;;;5022175;28;20033;-77
2023/06/04 04:58:54;;;;;;;4.20;2.22;;;10.10;99.90;;;;;;5006968;28;20031;-77
2023/06/04 05:01:20;;;;;;;7.05;2.28;;;10.20;99.90;;;;;;5005934;28;20036;-77
2023/06/04 05:03:46;;;;;;;9.55;2.30;;;10.20;99.90;;;;;;5026845;28;20456;-76
2023/06/04 05:06:11;;;;;;;10.73;2.47;;;10.30;99.90;;;;;;5031146;28;20047;-77
2023/06/04 05:08:37;;;;;;;6.72;2.50;;;10.30;99.90;;;;;;5021033;28;20033;-77
2023/06/04 05:11:03;;;;;;;6.90;2.78;;;10.40;99.90;;;;;;5020265;28;20036;-78
2023/06/04 05:13:29;;;;;;;8.70;2.53;;;10.50;99.90;;;;;;5013091;28;20029;-76
2023/06/04 05:15:54;;;;;;;11.50;3.13;;;10.60;99.90;;;;;;5035509;28;20041;-76
2023/06/04 05:18:20;;;;;;;13.02;3.88;;;10.70;99.90;;;;;;5004456;28;20028;-77
2023/06/04 05:20:46;;;;;;;6.63;2.83;;;10.80;99.90;;;;;;5009923;28;20056;-76
2023/06/04 05:23:12;;;;;;;10.02;2.58;;;11.00;99.90;;;;;;5036911;28;20119;-77
2023/06/04 05:25:38;;;;;;;11.93;2.47;;;11.00;99.90;;;;;;5033386;28;20499;-76
2023/06/04 05:28:05;;;;;;;7.47;2.72;;;11.10;99.90;;;;;;5015935;28;20709;-76
2023/06/04 05:30:31;;;;;;;10.60;2.58;;;11.20;99.90;;;;;;5016496;28;20044;-77
2023/06/04 05:32:57;;;;;;;9.75;2.53;;;11.30;99.90;;;;;;5007748;28;20029;-77
2023/06/04 05:35:22;;;;;;;9.80;3.03;;;11.40;99.90;;;;;;5009071;28;20759;-77
2023/06/04 05:37:53;;;;;;;7.85;2.63;;;11.40;99.90;;;;;;5014272;28;20119;-77
2023/06/04 05:40:20;;;;;;;6.75;2.35;;;11.40;99.90;;;;;;5011316;28;20029;-77
2023/06/04 05:42:47;;;;;;;10.35;2.60;;;11.50;99.90;;;;;;5005293;28;20052;-77
2023/06/04 05:45:13;;;;;;;11.00;2.92;;;11.60;99.90;;;;;;5029623;28;20214;-76
2023/06/04 05:47:38;;;;;;;7.45;2.85;;;11.70;99.90;;;;;;5034931;28;20568;-76
2023/06/04 05:50:05;;;;;;;10.77;3.40;;;11.70;99.90;;;;;;5028201;28;20021;-77
2023/06/04 05:52:33;;;;;;;9.45;2.88;;;11.80;99.90;;;;;;5013841;28;20037;-77
2023/06/04 05:54:58;;;;;;;9.55;3.08;;;11.90;99.90;;;;;;5005265;28;20021;-75
2023/06/04 05:57:24;;;;;;;11.73;2.65;;;11.90;99.90;;;;;;5021658;28;20112;-77
2023/06/04 05:59:50;;;;;;;11.55;2.92;;;12.00;99.90;;;;;;5003965;28;20476;-77
2023/06/04 06:02:15;;;;;;;7.53;2.85;;;12.00;99.90;;;;;;5032971;28;20044;-76
2023/06/04 06:04:41;;;;;;;10.35;2.67;;;12.10;99.90;;;;;;5023161;28;20025;-77
2023/06/04 06:07:07;;;;;;;35.72;14.60;;;12.20;99.90;;;;;;5006838;28;20037;-76
2023/06/04 06:09:33;;;;;;;65.18;27.92;;;12.30;99.90;;;;;;5029708;28;20049;-75
2023/06/04 06:11:59;;;;;;;16.45;4.95;;;12.40;99.90;;;;;;5007207;28;20128;-75
2023/06/04 06:14:25;;;;;;;10.93;3.63;;;12.40;99.90;;;;;;5017430;28;20409;-77
2023/06/04 06:16:51;;;;;;;10.02;3.10;;;12.50;99.90;;;;;;5003346;28;20834;-78
2023/06/04 06:19:16;;;;;;;14.38;3.35;;;12.50;99.90;;;;;;5002029;28;20056;-78
2023/06/04 06:21:42;;;;;;;10.02;2.80;;;12.50;99.90;;;;;;5010336;28;20170;-77
2023/06/04 06:24:08;;;;;;;15.38;4.00;;;12.60;99.90;;;;;;5024679;28;20037;-77
2023/06/04 06:26:34;;;;;;;8.55;3.35;;;12.70;99.90;;;;;;5006199;28;20511;-78
2023/06/04 06:28:59;;;;;;;10.82;2.85;;;12.80;99.90;;;;;;5003823;28;20157;-78
2023/06/04 06:31:25;;;;;;;12.27;3.05;;;12.90;99.90;;;;;;5013669;28;20535;-78
2023/06/04 06:33:51;;;;;;;10.43;3.00;;;12.90;99.90;;;;;;5006895;28;20035;-77
2023/06/04 06:36:19;;;;;;;9.77;3.17;;;13.00;99.90;;;;;;5009210;28;20029;-76
2023/06/04 06:38:46;;;;;;;9.95;2.90;;;13.00;99.90;;;;;;5033878;28;20032;-75
2023/06/04 06:41:12;;;;;;;39.05;15.18;;;13.20;99.90;;;;;;5037956;28;20036;-76
2023/06/04 06:43:37;;;;;;;6.38;2.72;;;13.20;99.90;;;;;;5012386;28;20028;-76
2023/06/04 06:46:03;;;;;;;11.30;3.08;;;13.20;99.90;;;;;;5039069;28;20045;-76
2023/06/04 06:48:28;;;;;;;10.88;2.95;;;13.20;99.90;;;;;;5035238;28;20575;-76
2023/06/04 06:50:55;;;;;;;7.88;2.47;;;13.30;99.90;;;;;;5011431;28;20041;-77
2023/06/04 06:53:20;;;;;;;7.53;2.78;;;13.40;99.90;;;;;;5014950;28;20025;-78
2023/06/04 06:55:46;;;;;;;449.50;232.48;;;13.50;99.90;;;;;;5013656;28;20029;-78
2023/06/04 06:58:11;;;;;;;15.68;4.95;;;13.60;99.90;;;;;;5004309;28;20017;-78
2023/06/04 07:00:37;;;;;;;10.85;2.88;;;13.70;99.90;;;;;;5017402;28;20042;-78
2023/06/04 07:03:03;;;;;;;13.55;3.20;;;13.80;99.90;;;;;;5011156;28;20025;-77
2023/06/04 07:05:29;;;;;;;12.77;2.90;;;13.80;99.90;;;;;;5011585;28;20496;-78
2023/06/04 07:07:57;;;;;;;9.20;2.65;;;13.80;99.90;;;;;;5016620;28;20025;-78
2023/06/04 07:10:23;;;;;;;13.13;3.40;;;13.80;99.90;;;;;;5022760;28;20024;-78
2023/06/04 07:12:48;;;;;;;13.20;3.33;;;14.00;99.90;;;;;;5004591;28;20030;-77
2023/06/04 07:15:14;;;;;;;11.98;3.20;;;14.00;99.90;;;;;;5023853;28;20892;-76
2023/06/04 07:17:40;;;;;;;10.27;2.58;;;14.20;99.90;;;;;;5034387;28;20083;-78
2023/06/04 07:20:07;;;;;;;10.55;2.70;;;14.40;99.90;;;;;;5029417;28;20032;-77
2023/06/04 07:22:33;;;;;;;8.10;2.50;;;14.50;99.90;;;;;;5020915;28;20500;-77
2023/06/04 07:24:59;;;;;;;6.18;2.83;;;14.80;99.90;;;;;;5025968;28;20900;-78
2023/06/04 07:27:26;;;;;;;10.45;2.67;;;15.00;99.90;;;;;;5025919;28;20116;-77
2023/06/04 07:29:52;;;;;;;12.43;2.58;;;15.90;99.90;;;;;;5011745;28;20032;-78
2023/06/04 07:32:17;;;;;;;7.22;2.38;;;18.00;99.90;;;;;;5033151;28;20029;-77
2023/06/04 07:34:43;;;;;;;4.78;2.10;;;20.10;94.80;;;;;;5009264;28;20731;-78
2023/06/04 07:37:09;;;;;;;10.27;2.10;;;22.30;90.10;;;;;;5005387;28;20226;-78
2023/06/04 07:39:35;;;;;;;6.10;1.88;;;24.10;78.90;;;;;;5025177;28;20129;-77
2023/06/04 07:42:01;;;;;;;8.52;1.80;;;24.30;69.50;;;;;;5001948;28;20041;-78
2023/06/04 07:44:27;;;;;;;5.78;1.58;;;26.10;62.90;;;;;;5006891;28;20024;-77
2023/06/04 07:46:52;;;;;;;8.15;1.95;;;26.50;56.20;;;;;;5011607;28;20040;-78
2023/06/04 07:49:18;;;;;;;9.10;2.05;;;27.20;53.30;;;;;;5007123;28;20029;-77
2023/06/04 07:51:44;;;;;;;6.53;1.60;;;27.70;51.70;;;;;;5034399;28;20032;-77
2023/06/04 07:54:10;;;;;;;7.13;2.05;;;28.70;48.70;;;;;;5012176;28;20033;-76
2023/06/04 07:56:36;;;;;;;7.28;1.73;;;29.00;47.20;;;;;;5016266;28;20373;-77
2023/06/04 07:59:01;;;;;;;8.18;1.88;;;30.50;43.50;;;;;;5039868;28;20093;-78
2023/06/04 08:01:27;;;;;;;4.80;1.42;;;30.90;42.70;;;;;;5028849;28;20037;-75
2023/06/04 08:03:53;;;;;;;6.45;1.85;;;31.80;38.90;;;;;;5027373;28;20029;-77
2023/06/04 08:06:18;;;;;;;4.53;1.50;;;31.70;39.50;;;;;;5034188;28;20076;-78
2023/06/04 08:08:45;;;;;;;6.72;1.90;;;31.80;37.20;;;;;;5008378;28;20449;-78
2023/06/04 08:11:17;;;;;;;6.95;1.73;;;31.40;37.80;;;;;;5011732;28;20037;-77
2023/06/04 08:13:43;;;;;;;7.80;2.15;;;31.80;38.30;;;;;;5030502;28;20078;-77
2023/06/04 08:16:10;;;;;;;7.95;1.75;;;31.90;37.50;;;;;;5026022;28;20555;-77
2023/06/04 08:18:39;;;;;;;4.68;1.55;;;32.40;36.50;;;;;;5019865;28;20167;-78
2023/06/04 08:21:06;;;;;;;4.45;1.80;;;33.40;36.40;;;;;;5027667;28;20044;-77
2023/06/04 08:23:32;;;;;;;6.57;1.80;;;34.40;35.60;;;;;;5013563;28;20044;-77
2023/06/04 08:25:58;;;;;;;6.53;1.83;;;33.20;32.80;;;;;;5017625;28;20879;-77
2023/06/04 08:28:24;;;;;;;7.82;1.73;;;32.40;33.90;;;;;;5027940;28;20090;-75
2023/06/04 08:30:50;;;;;;;6.32;1.50;;;33.60;35.40;;;;;;5027713;28;20044;-77
2023/06/04 08:33:16;;;;;;;5.32;1.85;;;34.30;34.00;;;;;;5030906;28;20025;-77
2023/06/04 08:35:41;;;;;;;6.10;1.50;;;35.10;31.90;;;;;;5030024;28;20037;-77
2023/06/04 08:38:07;;;;;;;6.57;1.70;;;35.20;33.20;;;;;;5017738;28;20037;-77
2023/06/04 08:40:34;;;;;;;6.93;1.50;;;34.80;32.40;;;;;;5030681;28;20813;-77
2023/06/04 08:43:01;;;;;;;6.50;1.63;;;35.30;33.20;;;;;;5013874;28;20456;-77
2023/06/04 08:45:27;;;;;;;8.63;1.67;;;35.40;32.70;;;;;;5003512;28;20116;-77
2023/06/04 08:47:53;;;;;;;6.38;1.55;;;36.40;31.20;;;;;;5028103;28;20103;-75
2023/06/04 08:50:22;;;;;;;6.75;1.50;;;36.40;30.50;;;;;;5037773;28;20548;-74
2023/06/04 08:52:52;;;;;;;5.43;1.67;;;36.60;31.30;;;;;;5027487;28;20122;-76
2023/06/04 08:55:17;;;;;;;6.03;1.80;;;36.00;28.50;;;;;;5013969;28;20110;-76
2023/06/04 08:57:44;;;;;;;4.97;1.38;;;34.70;30.00;;;;;;5014849;28;20808;-77
2023/06/04 09:00:10;;;;;;;6.53;2.05;;;34.70;29.60;;;;;;5015802;28;20029;-76
2023/06/04 09:02:38;;;;;;;7.10;1.90;;;33.70;32.30;;;;;;5028875;28;20072;-77
2023/06/04 09:05:08;;;;;;;6.10;1.70;;;32.90;31.20;;;;;;5018085;28;20057;-76
2023/06/04 09:07:45;;;;;;;5.38;1.40;;;33.20;31.50;;;;;;5025865;28;20030;-77
2023/06/04 09:10:15;;;;;;;6.30;1.63;;;33.30;32.80;;;;;;5007712;28;20128;-78
2023/06/04 09:12:44;;;;;;;6.80;1.73;;;34.30;30.70;;;;;;5023011;28;20043;-77
2023/06/04 09:15:11;;;;;;;6.47;1.67;;;34.70;29.70;;;;;;5011494;28;20029;-75
2023/06/04 09:17:36;;;;;;;5.63;1.98;;;34.00;30.20;;;;;;5018277;28;20084;-76
2023/06/04 09:20:20;;;;;;;6.38;1.77;;;34.00;30.10;;;;;;4943422;28;10000415;-75
2023/06/04 09:22:45;;;;;;;6.93;1.70;;;34.70;31.80;;;;;;4312614;28;9999959;-76
2023/06/04 09:25:21;;;;;;;5.35;1.33;;;36.30;31.50;;;;;;5015373;28;20029;-76
2023/06/04 09:27:46;;;;;;;4.10;1.40;;;37.80;30.40;;;;;;5016552;28;20086;-76
2023/06/04 09:30:12;;;;;;;3.33;1.15;;;37.60;28.00;;;;;;5038496;28;20021;-76
2023/06/04 09:32:38;;;;;;;5.55;1.70;;;38.10;28.90;;;;;;5035666;28;20033;-76
2023/06/04 09:35:13;;;;;;;5.20;1.27;;;38.10;27.40;;;;;;5008295;28;20048;-77
2023/06/04 09:37:40;;;;;;;7.72;1.80;;;36.70;29.30;;;;;;5028130;28;20086;-76
2023/06/04 09:40:07;;;;;;;4.50;1.42;;;36.00;30.40;;;;;;5038593;28;20366;-75
2023/06/04 09:42:44;;;;;;;5.72;1.25;;;34.80;33.40;;;;;;5030008;28;20088;-77
2023/06/04 09:45:11;;;;;;;5.57;1.38;;;35.70;30.30;;;;;;5010677;28;20087;-75
2023/06/04 09:47:42;;;;;;;6.38;1.40;;;35.90;29.30;;;;;;4869308;28;10000305;-76
2023/06/04 09:50:10;;;;;;;6.80;1.60;;;35.20;28.90;;;;;;5026775;28;20345;-75
2023/06/04 09:52:37;;;;;;;5.60;1.77;;;35.50;29.60;;;;;;5035756;28;20075;-76
2023/06/04 09:55:03;;;;;;;7.72;1.75;;;34.50;30.20;;;;;;5036155;28;21007;-76
2023/06/04 09:57:30;;;;;;;4.95;1.60;;;35.00;29.80;;;;;;5032733;28;20029;-76
2023/06/04 09:59:57;;;;;;;5.40;1.77;;;34.10;31.60;;;;;;5014094;28;20177;-76
2023/06/04 10:02:22;;;;;;;9.25;1.98;;;34.50;32.70;;;;;;5039315;28;20040;-76
2023/06/04 10:04:59;;;;;;;5.88;1.52;;;34.60;29.80;;;;;;5013608;28;20029;-76
2023/06/04 10:07:26;;;;;;;6.70;1.30;;;33.70;31.10;;;;;;5031200;28;20025;-75
2023/06/04 10:09:56;;;;;;;5.93;1.50;;;33.80;31.00;;;;;;5019541;28;20448;-76
2023/06/04 10:12:26;;;;;;;4.40;1.33;;;34.50;32.10;;;;;;5042237;28;20060;-76
2023/06/04 10:14:57;;;;;;;5.88;1.58;;;35.60;31.20;;;;;;5010473;28;20481;-76
2023/06/04 10:17:24;;;;;;;5.47;1.48;;;35.40;29.70;;;;;;5003104;28;20162;-76
2023/06/04 10:19:54;;;;;;;9.82;1.85;;;35.90;29.70;;;;;;5006828;28;20033;-76
2023/06/04 10:22:22;;;;;;;4.05;1.35;;;35.80;29.70;;;;;;5010189;28;20036;-76
2023/06/04 10:24:48;;;;;;;7.85;1.80;;;35.40;28.40;;;;;;5012895;28;20115;-75
2023/06/04 10:27:16;;;;;;;4.78;1.63;;;35.00;29.70;;;;;;5012867;28;20400;-75
2023/06/04 10:29:42;;;;;;;6.78;1.55;;;35.90;31.80;;;;;;5020038;28;20025;-76
2023/06/04 10:32:08;;;;;;;8.18;1.92;;;36.80;29.30;;;;;;5021292;28;20455;-75
2023/06/04 10:34:35;;;;;;;6.07;1.45;;;36.30;28.70;;;;;;5023823;28;20040;-75
2023/06/04 10:37:02;;;;;;;6.57;1.40;;;36.00;29.90;;;;;;5031993;28;20472;-75
2023/06/04 10:39:29;;;;;;;9.05;1.83;;;36.20;29.30;;;;;;5030658;28;20025;-77
2023/06/04 10:42:03;;;;;;;6.32;1.45;;;34.70;28.80;;;;;;5014632;28;20168;-76
2023/06/04 10:44:44;;;;;;;7.10;1.60;;;34.40;33.10;;;;;;4999096;28;20036;-75
2023/06/04 10:47:24;;;;;;;7.32;1.50;;;35.00;29.60;;;;;;5029996;28;20044;-79
2023/06/04 10:49:54;;;;;;;6.10;1.48;;;35.20;32.70;;;;;;5025684;28;20032;-76
2023/06/04 10:52:21;;;;;;;7.15;1.75;;;34.70;31.10;;;;;;5023543;28;20061;-75
2023/06/04 10:54:48;;;;;;;5.82;1.52;;;35.60;30.80;;;;;;5029924;28;20100;-76
2023/06/04 10:57:18;;;;;;;6.45;1.73;;;36.90;32.10;;;;;;5026822;28;20025;-75
2023/06/04 11:00:00;;;;;;;8.98;1.40;;;36.60;28.30;;;;;;5018708;28;20875;-76
2023/06/04 11:02:27;;;;;;;8.10;2.10;;;35.90;29.00;;;;;;5014474;28;20037;-75
2023/06/04 11:05:07;;;;;;;7.55;1.60;;;35.20;28.70;;;;;;5016393;28;20024;-75
2023/06/04 11:07:47;;;;;;;8.27;1.55;;;34.40;29.00;;;;;;5028932;28;20024;-76
2023/06/04 11:10:14;;;;;;;4.70;1.13;;;34.20;28.70;;;;;;5006923;28;20033;-75
2023/06/04 11:12:45;;;;;;;4.97;1.38;;;34.50;30.50;;;;;;5005260;28;20089;-75
2023/06/04 11:15:11;;;;;;;3.83;1.15;;;35.00;32.00;;;;;;5032422;28;20025;-75
2023/06/04 11:17:36;;;;;;;4.97;1.45;;;35.20;28.80;;;;;;5024497;28;20042;-75
2023/06/04 11:20:04;;;;;;;5.88;1.60;;;34.90;29.70;;;;;;5005303;28;20032;-78
2023/06/04 11:22:30;;;;;;;5.88;1.45;;;32.50;29.80;;;;;;5014771;28;20040;-77
2023/06/04 11:24:58;;;;;;;6.90;1.52;;;31.60;33.50;;;;;;5012779;28;20025;-75
2023/06/04 11:27:24;;;;;;;5.63;1.38;;;31.60;35.50;;;;;;5016996;28;20155;-75
2023/06/04 11:29:51;;;;;;;5.07;1.50;;;31.80;34.10;;;;;;5020780;28;20124;-76
2023/06/04 11:32:26;;;;;;;7.07;1.30;;;30.10;34.30;;;;;;5015282;28;20542;-78
2023/06/04 11:35:01;;;;;;;5.22;1.27;;;28.90;35.30;;;;;;5033312;28;20092;-76
2023/06/04 11:37:30;;;;;;;6.47;1.45;;;27.90;41.60;;;;;;5023552;28;20047;-77
2023/06/04 11:39:56;;;;;;;6.00;1.50;;;27.60;38.90;;;;;;5012808;28;20053;-77
2023/06/04 11:42:22;;;;;;;6.90;1.65;;;27.70;39.60;;;;;;5024419;28;20061;-77
2023/06/04 11:44:48;;;;;;;6.50;1.83;;;27.80;40.10;;;;;;5018307;28;20081;-78
2023/06/04 11:47:15;;;;;;;4.55;1.50;;;27.40;39.30;;;;;;4320876;28;10000700;-77
2023/06/04 11:49:42;;;;;;;7.07;1.42;;;27.60;41.40;;;;;;5010368;28;20047;-76
2023/06/04 11:52:09;;;;;;;5.28;1.70;;;27.40;43.90;;;;;;5003620;28;20116;-77
2023/06/04 11:54:39;;;;;;;5.63;1.15;;;27.10;39.00;;;;;;5030495;28;20114;-76
2023/06/04 11:57:05;;;;;;;6.95;1.60;;;27.20;42.40;;;;;;5017708;28;20134;-77
2023/06/04 11:59:31;;;;;;;4.32;1.20;;;26.70;44.80;;;;;;5029431;28;20045;-77
2023/06/04 12:01:57;;;;;;;7.03;1.17;;;26.70;40.90;;;;;;5026590;28;20041;-76
2023/06/04 12:04:23;;;;;;;4.57;1.45;;;26.50;42.70;;;;;;5026357;28;20026;-77
2023/06/04 12:07:00;;;;;;;5.43;1.17;;;26.40;45.40;;;;;;5033354;28;20095;-77
2023/06/04 12:09:31;;;;;;;4.35;1.05;;;26.30;42.10;;;;;;5003610;28;20030;-77
2023/06/04 12:12:03;;;;;;;5.20;1.42;;;26.40;43.40;;;;;;5027929;28;20428;-77
2023/06/04 12:14:29;;;;;;;6.80;1.33;;;26.80;45.00;;;;;;5033804;28;20106;-77
2023/06/04 12:17:05;;;;;;;7.00;1.15;;;27.20;43.60;;;;;;5020252;28;20029;-77
2023/06/04 12:19:31;;;;;;;5.03;1.23;;;27.20;42.90;;;;;;5005511;28;20034;-78
2023/06/04 12:22:04;;;;;;;4.30;1.35;;;27.10;41.50;;;;;;5006058;28;20233;-77
2023/06/04 12:24:45;;;;;;;4.05;1.27;;;27.10;43.30;;;;;;5004796;28;20797;-76
2023/06/04 12:27:11;;;;;;;6.85;1.83;;;26.60;42.60;;;;;;5018736;28;20033;-77
2023/06/04 12:29:37;;;;;;;5.05;1.80;;;25.90;45.00;;;;;;5034809;28;20386;-78
2023/06/04 12:32:11;;;;;;;8.52;1.77;;;25.80;43.40;;;;;;5021103;28;20028;-77
2023/06/04 12:34:37;;;;;;;6.97;1.80;;;25.80;45.10;;;;;;5035524;28;20040;-77
2023/06/04 12:37:05;;;;;;;5.75;1.42;;;25.90;45.20;;;;;;5005396;28;20035;-77
2023/06/04 12:39:37;;;;;;;4.70;1.55;;;26.00;46.70;;;;;;5008934;28;20044;-77
2023/06/04 12:42:05;;;;;;;4.97;1.20;;;25.80;42.00;;;;;;5007512;28;20465;-77
2023/06/04 12:44:31;;;;;;;6.28;1.17;;;24.90;46.40;;;;;;5008692;28;20071;-77
2023/06/04 12:46:57;;;;;;;4.28;1.17;;;24.90;41.70;;;;;;4999820;28;20555;-77
2023/06/04 12:49:22;;;;;;;7.75;1.90;;;25.00;46.40;;;;;;5026813;28;20079;-77